sensor_id;sensor_type;location;lat;lon;timestamp;pressure;altitude;pressure_sealevel;temperature;humidity
11692;BME280;33659;42.672;23.354;2023-01-26T00:02:14;94798.38;;;0.69;73.66
11692;BME280;33659;42.672;23.354;2023-01-26T00:04:41;94798.34;;;0.48;74.54
11692;BME280;33659;42.672;23.354;2023-01-26T00:07:07;94797.78;;;0.36;74.87
11692;BME280;33659;42.672;23.354;2023-01-26T00:09:34;94787.25;;;0.28;75.16
11692;BME280;33659;42.672;23.354;2023-01-26T00:12:00;94787.25;;;0.28;75.55
11692;BME280;33659;42.672;23.354;2023-01-26T00:14:27;94793.38;;;0.21;75.20
11692;BME280;33659;42.672;23.354;2023-01-26T00:17:16;94790.53;;;0.18;75.39
11692;BME280;33659;42.672;23.354;2023-01-26T00:19:51;94806.44;;;0.15;75.60
11692;BME280;33659;42.672;23.354;2023-01-26T00:22:18;94813.13;;;0.16;76.18
11692;BME280;33659;42.672;23.354;2023-01-26T00:24:45;94800.25;;;0.11;76.00
11692;BME280;33659;42.672;23.354;2023-01-26T00:27:11;94795.84;;;0.06;76.20
11692;BME280;33659;42.672;23.354;2023-01-26T00:29:38;94789.47;;;0.09;76.23
11692;BME280;33659;42.672;23.354;2023-01-26T00:32:05;94786.66;;;0.10;75.99
11692;BME280;33659;42.672;23.354;2023-01-26T00:34:33;94786.41;;;0.17;75.92
11692;BME280;33659;42.672;23.354;2023-01-26T00:36:59;94775.38;;;0.16;75.87
11692;BME280;33659;42.672;23.354;2023-01-26T00:39:26;94767.66;;;0.16;75.34
11692;BME280;33659;42.672;23.354;2023-01-26T00:41:53;94776.66;;;0.19;75.06
11692;BME280;33659;42.672;23.354;2023-01-26T00:44:34;94775.09;;;0.08;75.69
11692;BME280;33659;42.672;23.354;2023-01-26T00:47:01;94760.69;;;0.02;75.51
11692;BME280;33659;42.672;23.354;2023-01-26T00:49:28;94756.53;;;-0.10;76.30
11692;BME280;33659;42.672;23.354;2023-01-26T00:51:56;94760.84;;;-0.20;76.49
11692;BME280;33659;42.672;23.354;2023-01-26T00:54:22;94753.34;;;-0.32;76.47
11692;BME280;33659;42.672;23.354;2023-01-26T00:56:49;94761.50;;;-0.40;77.11
11692;BME280;33659;42.672;23.354;2023-01-26T00:59:16;94753.34;;;-0.32;77.30
11692;BME280;33659;42.672;23.354;2023-01-26T01:01:42;94751.81;;;-0.28;77.03
11692;BME280;33659;42.672;23.354;2023-01-26T01:04:09;94746.19;;;-0.30;77.08
11692;BME280;33659;42.672;23.354;2023-01-26T01:06:36;94726.91;;;-0.38;76.86
11692;BME280;33659;42.672;23.354;2023-01-26T01:09:04;94736.13;;;-0.37;77.02
11692;BME280;33659;42.672;23.354;2023-01-26T01:11:31;94726.88;;;-0.43;76.77
11692;BME280;33659;42.672;23.354;2023-01-26T01:13:58;94742.34;;;-0.22;76.48
11692;BME280;33659;42.672;23.354;2023-01-26T01:16:25;94743.63;;;-0.25;76.48
11692;BME280;33659;42.672;23.354;2023-01-26T01:18:53;94745.88;;;-0.34;76.63
11692;BME280;33659;42.672;23.354;2023-01-26T01:21:20;94737.97;;;-0.32;76.42
11692;BME280;33659;42.672;23.354;2023-01-26T01:23:48;94730.25;;;-0.27;76.08
11692;BME280;33659;42.672;23.354;2023-01-26T01:26:16;94737.97;;;-0.27;76.30
11692;BME280;33659;42.672;23.354;2023-01-26T01:28:43;94746.75;;;-0.18;75.94
11692;BME280;33659;42.672;23.354;2023-01-26T01:31:11;94738.59;;;-0.05;75.26
11692;BME280;33659;42.672;23.354;2023-01-26T01:33:39;94730.16;;;0.10;74.85
11692;BME280;33659;42.672;23.354;2023-01-26T01:36:07;94728.91;;;0.23;74.21
11692;BME280;33659;42.672;23.354;2023-01-26T01:38:35;94722.78;;;0.34;73.39
11692;BME280;33659;42.672;23.354;2023-01-26T01:41:02;94730.22;;;0.36;73.38
11692;BME280;33659;42.672;23.354;2023-01-26T01:43:31;94727.94;;;0.39;72.74
11692;BME280;33659;42.672;23.354;2023-01-26T01:45:59;94731.53;;;0.48;72.64
11692;BME280;33659;42.672;23.354;2023-01-26T01:48:28;94716.13;;;0.48;72.50
11692;BME280;33659;42.672;23.354;2023-01-26T01:50:59;94737.41;;;0.29;72.80
11692;BME280;33659;42.672;23.354;2023-01-26T01:53:32;94732.97;;;0.04;73.38
11692;BME280;33659;42.672;23.354;2023-01-26T01:56:03;94719.31;;;-0.07;73.74
11692;BME280;33659;42.672;23.354;2023-01-26T01:58:36;94725.47;;;-0.08;74.12
11692;BME280;33659;42.672;23.354;2023-01-26T02:01:04;94718.81;;;-0.04;73.90
11692;BME280;33659;42.672;23.354;2023-01-26T02:03:32;94719.06;;;-0.11;73.71
11692;BME280;33659;42.672;23.354;2023-01-26T02:06:02;94721.38;;;-0.09;73.85
11692;BME280;33659;42.672;23.354;2023-01-26T02:08:32;94715.22;;;-0.08;74.04
11692;BME280;33659;42.672;23.354;2023-01-26T02:11:04;94685.44;;;-0.09;73.72
11692;BME280;33659;42.672;23.354;2023-01-26T02:13:34;94719.34;;;0.03;73.60
11692;BME280;33659;42.672;23.354;2023-01-26T02:16:02;94699.59;;;0.04;73.74
11692;BME280;33659;42.672;23.354;2023-01-26T02:18:29;94698.00;;;-0.08;73.99
11692;BME280;33659;42.672;23.354;2023-01-26T02:20:58;94698.31;;;0.06;73.75
11692;BME280;33659;42.672;23.354;2023-01-26T02:23:41;94690.38;;;0.13;73.71
11692;BME280;33659;42.672;23.354;2023-01-26T02:26:12;94673.69;;;0.10;73.44
11692;BME280;33659;42.672;23.354;2023-01-26T02:28:40;94674.44;;;0.11;73.61
11692;BME280;33659;42.672;23.354;2023-01-26T02:31:08;94673.44;;;0.07;73.23
11692;BME280;33659;42.672;23.354;2023-01-26T02:33:36;94680.56;;;-0.01;73.86
11692;BME280;33659;42.672;23.354;2023-01-26T02:36:05;94679.06;;;0.04;73.55
11692;BME280;33659;42.672;23.354;2023-01-26T02:38:38;94668.25;;;-0.09;74.14
11692;BME280;33659;42.672;23.354;2023-01-26T02:41:07;94661.75;;;-0.27;74.92
11692;BME280;33659;42.672;23.354;2023-01-26T02:43:36;94661.69;;;-0.47;75.06
11692;BME280;33659;42.672;23.354;2023-01-26T02:46:02;94664.50;;;-0.48;76.01
11692;BME280;33659;42.672;23.354;2023-01-26T02:48:28;94673.25;;;-0.39;75.96
11692;BME280;33659;42.672;23.354;2023-01-26T02:51:13;94653.81;;;-0.20;75.31
11692;BME280;33659;42.672;23.354;2023-01-26T02:53:39;94659.03;;;0.01;75.29
11692;BME280;33659;42.672;23.354;2023-01-26T02:56:06;94648.53;;;0.17;74.57
11692;BME280;33659;42.672;23.354;2023-01-26T02:58:32;94652.91;;;0.32;73.89
11692;BME280;33659;42.672;23.354;2023-01-26T03:01:00;94639.06;;;0.48;73.23
11692;BME280;33659;42.672;23.354;2023-01-26T03:03:27;94635.97;;;0.62;72.69
11692;BME280;33659;42.672;23.354;2023-01-26T03:06:07;94632.38;;;0.68;72.34
11692;BME280;33659;42.672;23.354;2023-01-26T03:08:34;94634.19;;;0.72;72.58
11692;BME280;33659;42.672;23.354;2023-01-26T03:11:01;94639.84;;;0.85;72.06
11692;BME280;33659;42.672;23.354;2023-01-26T03:13:28;94630.81;;;0.77;71.09
11692;BME280;33659;42.672;23.354;2023-01-26T03:15:55;94628.00;;;0.78;71.42
11692;BME280;33659;42.672;23.354;2023-01-26T03:18:28;94618.50;;;0.74;71.76
11692;BME280;33659;42.672;23.354;2023-01-26T03:21:14;94622.34;;;0.76;71.93
11692;BME280;33659;42.672;23.354;2023-01-26T03:23:59;94616.44;;;0.86;71.40
11692;BME280;33659;42.672;23.354;2023-01-26T03:26:43;94599.47;;;0.80;71.83
11692;BME280;33659;42.672;23.354;2023-01-26T03:29:27;94597.94;;;0.74;71.64
11692;BME280;33659;42.672;23.354;2023-01-26T03:31:54;94604.13;;;0.78;72.11
11692;BME280;33659;42.672;23.354;2023-01-26T03:34:25;94612.31;;;0.75;72.14
11692;BME280;33659;42.672;23.354;2023-01-26T03:36:51;94606.16;;;0.81;72.03
11692;BME280;33659;42.672;23.354;2023-01-26T03:39:18;94597.91;;;0.89;71.85
11692;BME280;33659;42.672;23.354;2023-01-26T03:42:03;94605.88;;;0.98;71.42
11692;BME280;33659;42.672;23.354;2023-01-26T03:44:47;94600.69;;;1.08;71.01
11692;BME280;33659;42.672;23.354;2023-01-26T03:47:31;94600.97;;;1.06;70.65
11692;BME280;33659;42.672;23.354;2023-01-26T03:50:17;94596.34;;;1.03;70.82
11692;BME280;33659;42.672;23.354;2023-01-26T03:53:01;94578.38;;;0.98;71.01
11692;BME280;33659;42.672;23.354;2023-01-26T03:55:45;94594.06;;;0.81;71.50
11692;BME280;33659;42.672;23.354;2023-01-26T03:58:29;94586.63;;;0.75;72.34
11692;BME280;33659;42.672;23.354;2023-01-26T04:00:56;94589.97;;;0.80;71.95
11692;BME280;33659;42.672;23.354;2023-01-26T04:03:22;94580.19;;;0.82;71.90
11692;BME280;33659;42.672;23.354;2023-01-26T04:06:08;94584.56;;;0.87;71.64
11692;BME280;33659;42.672;23.354;2023-01-26T04:08:52;94587.13;;;0.87;71.68
11692;BME280;33659;42.672;23.354;2023-01-26T04:11:19;94573.50;;;0.87;71.34
11692;BME280;33659;42.672;23.354;2023-01-26T04:13:45;94578.09;;;0.95;71.39
11692;BME280;33659;42.672;23.354;2023-01-26T04:16:29;94559.88;;;0.91;70.80
11692;BME280;33659;42.672;23.354;2023-01-26T04:19:13;94566.56;;;0.87;71.35
11692;BME280;33659;42.672;23.354;2023-01-26T04:21:59;94557.81;;;0.83;72.06
11692;BME280;33659;42.672;23.354;2023-01-26T04:24:26;94557.31;;;0.81;71.67
11692;BME280;33659;42.672;23.354;2023-01-26T04:26:52;94545.72;;;0.89;71.39
11692;BME280;33659;42.672;23.354;2023-01-26T04:29:19;94552.66;;;0.88;71.16
11692;BME280;33659;42.672;23.354;2023-01-26T04:31:46;94535.22;;;0.75;71.65
11692;BME280;33659;42.672;23.354;2023-01-26T04:34:14;94546.03;;;0.72;71.76
11692;BME280;33659;42.672;23.354;2023-01-26T04:36:41;94536.31;;;0.59;72.16
11692;BME280;33659;42.672;23.354;2023-01-26T04:39:09;94540.16;;;0.51;72.69
11692;BME280;33659;42.672;23.354;2023-01-26T04:41:36;94520.94;;;0.28;73.12
11692;BME280;33659;42.672;23.354;2023-01-26T04:44:03;94541.47;;;0.28;73.21
11692;BME280;33659;42.672;23.354;2023-01-26T04:46:29;94542.50;;;0.27;73.29
11692;BME280;33659;42.672;23.354;2023-01-26T04:48:57;94537.88;;;0.24;73.27
11692;BME280;33659;42.672;23.354;2023-01-26T04:51:24;94541.72;;;0.32;73.33
11692;BME280;33659;42.672;23.354;2023-01-26T04:53:52;94540.72;;;0.33;73.03
11692;BME280;33659;42.672;23.354;2023-01-26T04:56:22;94533.75;;;0.33;72.89
11692;BME280;33659;42.672;23.354;2023-01-26T04:58:49;94549.69;;;0.35;73.26
11692;BME280;33659;42.672;23.354;2023-01-26T05:01:16;94552.50;;;0.29;72.74
11692;BME280;33659;42.672;23.354;2023-01-26T05:03:42;94550.72;;;0.29;73.35
11692;BME280;33659;42.672;23.354;2023-01-26T05:06:09;94543.53;;;0.26;73.10
11692;BME280;33659;42.672;23.354;2023-01-26T05:08:36;94551.22;;;0.41;72.85
11692;BME280;33659;42.672;23.354;2023-01-26T05:11:04;94540.19;;;0.41;72.83
11692;BME280;33659;42.672;23.354;2023-01-26T05:13:32;94537.88;;;0.39;72.75
11692;BME280;33659;42.672;23.354;2023-01-26T05:16:00;94540.94;;;0.41;72.83
11692;BME280;33659;42.672;23.354;2023-01-26T05:18:27;94534.78;;;0.47;72.72
11692;BME280;33659;42.672;23.354;2023-01-26T05:20:54;94543.50;;;0.46;72.38
11692;BME280;33659;42.672;23.354;2023-01-26T05:23:21;94538.38;;;0.46;72.24
11692;BME280;33659;42.672;23.354;2023-01-26T05:25:47;94535.78;;;0.57;72.23
11692;BME280;33659;42.672;23.354;2023-01-26T05:28:14;94535.25;;;0.65;71.57
11692;BME280;33659;42.672;23.354;2023-01-26T05:30:42;94526.00;;;0.64;72.02
11692;BME280;33659;42.672;23.354;2023-01-26T05:33:09;94532.44;;;0.71;71.68
11692;BME280;33659;42.672;23.354;2023-01-26T05:35:36;94532.16;;;0.63;71.34
11692;BME280;33659;42.672;23.354;2023-01-26T05:38:03;94529.09;;;0.56;71.74
11692;BME280;33659;42.672;23.354;2023-01-26T05:40:30;94531.13;;;0.64;71.79
11692;BME280;33659;42.672;23.354;2023-01-26T05:42:56;94526.75;;;0.74;71.43
11692;BME280;33659;42.672;23.354;2023-01-26T05:45:23;94533.16;;;0.82;70.60
11692;BME280;33659;42.672;23.354;2023-01-26T05:47:51;94532.66;;;0.70;71.12
11692;BME280;33659;42.672;23.354;2023-01-26T05:50:18;94532.16;;;0.63;71.22
11692;BME280;33659;42.672;23.354;2023-01-26T05:52:45;94532.69;;;0.65;72.04
11692;BME280;33659;42.672;23.354;2023-01-26T05:55:12;94531.13;;;0.69;71.54
11692;BME280;33659;42.672;23.354;2023-01-26T05:57:39;94539.59;;;0.69;71.45
11692;BME280;33659;42.672;23.354;2023-01-26T06:00:07;94532.69;;;0.60;71.78
11692;BME280;33659;42.672;23.354;2023-01-26T06:02:34;94538.84;;;0.74;71.38
11692;BME280;33659;42.672;23.354;2023-01-26T06:05:02;94541.41;;;0.69;71.45
11692;BME280;33659;42.672;23.354;2023-01-26T06:07:29;94524.22;;;0.59;71.20
11692;BME280;33659;42.672;23.354;2023-01-26T06:09:56;94522.16;;;0.66;71.85
11692;BME280;33659;42.672;23.354;2023-01-26T06:12:22;94538.06;;;0.73;71.29
11692;BME280;33659;42.672;23.354;2023-01-26T06:14:52;94540.84;;;0.87;71.48
11692;BME280;33659;42.672;23.354;2023-01-26T06:17:18;94525.91;;;0.99;70.90
11692;BME280;33659;42.672;23.354;2023-01-26T06:19:45;94520.75;;;1.10;70.72
11692;BME280;33659;42.672;23.354;2023-01-26T06:22:14;94532.50;;;1.16;69.84
11692;BME280;33659;42.672;23.354;2023-01-26T06:24:40;94527.91;;;1.18;69.67
11692;BME280;33659;42.672;23.354;2023-01-26T06:27:13;94522.50;;;1.14;69.58
11692;BME280;33659;42.672;23.354;2023-01-26T06:29:40;94515.56;;;1.15;69.98
11692;BME280;33659;42.672;23.354;2023-01-26T06:32:07;94509.13;;;1.17;69.69
11692;BME280;33659;42.672;23.354;2023-01-26T06:34:35;94520.16;;;1.23;69.64
11692;BME280;33659;42.672;23.354;2023-01-26T06:37:01;94504.22;;;1.16;69.95
11692;BME280;33659;42.672;23.354;2023-01-26T06:39:31;94507.88;;;1.10;69.85
11692;BME280;33659;42.672;23.354;2023-01-26T06:41:58;94508.09;;;1.13;70.34
11692;BME280;33659;42.672;23.354;2023-01-26T06:44:27;94508.38;;;1.17;69.91
11692;BME280;33659;42.672;23.354;2023-01-26T06:46:53;94516.09;;;1.06;70.53
11692;BME280;33659;42.672;23.354;2023-01-26T06:49:20;94511.53;;;0.98;70.07
11692;BME280;33659;42.672;23.354;2023-01-26T06:51:53;94522.84;;;0.97;70.96
11692;BME280;33659;42.672;23.354;2023-01-26T06:54:21;94508.97;;;0.83;71.16
11692;BME280;33659;42.672;23.354;2023-01-26T06:56:49;94504.66;;;0.73;71.07
11692;BME280;33659;42.672;23.354;2023-01-26T06:59:16;94511.34;;;0.69;71.78
11692;BME280;33659;42.672;23.354;2023-01-26T07:01:44;94505.22;;;0.60;72.61
11692;BME280;33659;42.672;23.354;2023-01-26T07:04:13;94497.22;;;0.57;72.62
11692;BME280;33659;42.672;23.354;2023-01-26T07:06:40;94496.47;;;0.51;72.98
11692;BME280;33659;42.672;23.354;2023-01-26T07:09:10;94489.53;;;0.51;72.58
11692;BME280;33659;42.672;23.354;2023-01-26T07:11:36;94493.91;;;0.51;72.98
11692;BME280;33659;42.672;23.354;2023-01-26T07:14:04;94482.31;;;0.64;72.42
11692;BME280;33659;42.672;23.354;2023-01-26T07:16:31;94459.75;;;0.50;72.62
11692;BME280;33659;42.672;23.354;2023-01-26T07:18:58;94482.31;;;0.69;72.51
11692;BME280;33659;42.672;23.354;2023-01-26T07:21:26;94482.03;;;0.70;72.56
11692;BME280;33659;42.672;23.354;2023-01-26T07:23:54;94484.09;;;0.78;72.59
11692;BME280;33659;42.672;23.354;2023-01-26T07:26:23;94480.75;;;0.73;72.40
11692;BME280;33659;42.672;23.354;2023-01-26T07:28:52;94470.28;;;0.54;72.74
11692;BME280;33659;42.672;23.354;2023-01-26T07:31:20;94456.19;;;0.36;73.69
11692;BME280;33659;42.672;23.354;2023-01-26T07:33:47;94475.69;;;0.37;73.88
11692;BME280;33659;42.672;23.354;2023-01-26T07:36:15;94468.53;;;0.34;74.00
11692;BME280;33659;42.672;23.354;2023-01-26T07:38:43;94475.19;;;0.40;74.24
11692;BME280;33659;42.672;23.354;2023-01-26T07:41:11;94476.47;;;0.43;74.02
11692;BME280;33659;42.672;23.354;2023-01-26T07:43:38;94461.56;;;0.45;73.88
11692;BME280;33659;42.672;23.354;2023-01-26T07:46:05;94461.31;;;0.41;73.83
11692;BME280;33659;42.672;23.354;2023-01-26T07:48:37;94449.75;;;0.44;74.34
11692;BME280;33659;42.672;23.354;2023-01-26T07:51:06;94461.28;;;0.51;73.79
11692;BME280;33659;42.672;23.354;2023-01-26T07:53:34;94461.53;;;0.50;73.80
11692;BME280;33659;42.672;23.354;2023-01-26T07:56:08;94465.63;;;0.61;73.24
11692;BME280;33659;42.672;23.354;2023-01-26T07:58:38;94470.75;;;0.66;72.96
11692;BME280;33659;42.672;23.354;2023-01-26T08:01:06;94466.66;;;0.65;73.46
11692;BME280;33659;42.672;23.354;2023-01-26T08:03:35;94472.00;;;0.74;72.73
11692;BME280;33659;42.672;23.354;2023-01-26T08:06:02;94464.28;;;0.84;72.57
11692;BME280;33659;42.672;23.354;2023-01-26T08:08:34;94461.16;;;0.92;71.77
11692;BME280;33659;42.672;23.354;2023-01-26T08:11:02;94456.75;;;0.98;71.31
11692;BME280;33659;42.672;23.354;2023-01-26T08:13:29;94452.41;;;0.88;71.91
11692;BME280;33659;42.672;23.354;2023-01-26T08:16:03;94451.91;;;0.91;71.91
11692;BME280;33659;42.672;23.354;2023-01-26T08:18:30;94448.31;;;0.92;71.20
11692;BME280;33659;42.672;23.354;2023-01-26T08:20:58;94451.94;;;0.86;71.58
11692;BME280;33659;42.672;23.354;2023-01-26T08:23:26;94452.13;;;1.00;71.61
11692;BME280;33659;42.672;23.354;2023-01-26T08:25:59;94454.00;;;0.84;71.52
11692;BME280;33659;42.672;23.354;2023-01-26T08:28:26;94435.50;;;0.77;71.61
11692;BME280;33659;42.672;23.354;2023-01-26T08:30:53;94446.06;;;0.70;71.45
11692;BME280;33659;42.672;23.354;2023-01-26T08:33:22;94437.91;;;0.58;71.91
11692;BME280;33659;42.672;23.354;2023-01-26T08:35:50;94433.47;;;0.69;72.17
11692;BME280;33659;42.672;23.354;2023-01-26T08:38:18;94440.41;;;0.73;72.18
11692;BME280;33659;42.672;23.354;2023-01-26T08:40:50;94434.50;;;0.73;71.07
11692;BME280;33659;42.672;23.354;2023-01-26T08:43:17;94417.59;;;0.57;70.99
11692;BME280;33659;42.672;23.354;2023-01-26T08:45:46;94396.63;;;0.24;72.07
11692;BME280;33659;42.672;23.354;2023-01-26T08:48:12;94424.03;;;0.59;72.03
11692;BME280;33659;42.672;23.354;2023-01-26T08:50:39;94425.25;;;0.72;71.79
11692;BME280;33659;42.672;23.354;2023-01-26T08:53:05;94438.13;;;0.72;71.76
11692;BME280;33659;42.672;23.354;2023-01-26T08:55:34;94435.28;;;0.68;72.03
11692;BME280;33659;42.672;23.354;2023-01-26T08:58:02;94440.44;;;0.63;71.63
11692;BME280;33659;42.672;23.354;2023-01-26T09:00:29;94430.97;;;0.59;71.89
11692;BME280;33659;42.672;23.354;2023-01-26T09:02:59;94432.72;;;0.63;71.79
11692;BME280;33659;42.672;23.354;2023-01-26T09:05:26;94427.31;;;0.70;71.57
11692;BME280;33659;42.672;23.354;2023-01-26T09:07:55;94430.16;;;0.63;71.33
11692;BME280;33659;42.672;23.354;2023-01-26T09:10:22;94424.72;;;0.70;71.62
11692;BME280;33659;42.672;23.354;2023-01-26T09:12:52;94436.59;;;0.66;71.00
11692;BME280;33659;42.672;23.354;2023-01-26T09:15:22;94424.81;;;0.49;71.93
11692;BME280;33659;42.672;23.354;2023-01-26T09:17:49;94422.50;;;0.48;72.07
11692;BME280;33659;42.672;23.354;2023-01-26T09:20:19;94423.28;;;0.43;71.95
11692;BME280;33659;42.672;23.354;2023-01-26T09:22:51;94424.81;;;0.44;71.92
11692;BME280;33659;42.672;23.354;2023-01-26T09:25:18;94414.31;;;0.46;72.00
11692;BME280;33659;42.672;23.354;2023-01-26T09:27:51;94407.31;;;0.51;71.98
11692;BME280;33659;42.672;23.354;2023-01-26T09:30:19;94410.38;;;0.64;71.62
11692;BME280;33659;42.672;23.354;2023-01-26T09:32:52;94403.13;;;0.71;71.67
11692;BME280;33659;42.672;23.354;2023-01-26T09:35:24;94402.91;;;0.72;71.14
11692;BME280;33659;42.672;23.354;2023-01-26T09:37:53;94387.97;;;0.79;71.56
11692;BME280;33659;42.672;23.354;2023-01-26T09:40:35;94372.09;;;0.62;71.18
11692;BME280;33659;42.672;23.354;2023-01-26T09:43:15;94402.63;;;0.79;71.08
11692;BME280;33659;42.672;23.354;2023-01-26T09:45:57;94407.00;;;0.73;71.28
11692;BME280;33659;42.672;23.354;2023-01-26T09:48:33;94400.34;;;0.72;71.86
11692;BME280;33659;42.672;23.354;2023-01-26T09:51:06;94400.06;;;0.74;71.78
11692;BME280;33659;42.672;23.354;2023-01-26T09:53:42;94385.84;;;0.92;71.79
11692;BME280;33659;42.672;23.354;2023-01-26T09:56:14;94369.53;;;1.12;70.71
11692;BME280;33659;42.672;23.354;2023-01-26T09:58:44;94373.44;;;1.04;70.51
11692;BME280;33659;42.672;23.354;2023-01-26T10:01:17;94369.06;;;1.04;71.01
11692;BME280;33659;42.672;23.354;2023-01-26T10:03:50;94374.13;;;1.15;70.56
11692;BME280;33659;42.672;23.354;2023-01-26T10:06:24;94360.31;;;1.05;69.68
11692;BME280;33659;42.672;23.354;2023-01-26T10:08:54;94377.13;;;1.27;69.89
11692;BME280;33659;42.672;23.354;2023-01-26T10:11:26;94372.22;;;1.30;70.12
11692;BME280;33659;42.672;23.354;2023-01-26T10:13:56;94381.44;;;1.37;70.06
11692;BME280;33659;42.672;23.354;2023-01-26T10:16:26;94381.63;;;1.45;69.53
11692;BME280;33659;42.672;23.354;2023-01-26T10:18:57;94366.97;;;1.46;69.39
11692;BME280;33659;42.672;23.354;2023-01-26T10:21:30;94351.75;;;1.49;69.38
11692;BME280;33659;42.672;23.354;2023-01-26T10:23:59;94336.84;;;1.46;69.02
11692;BME280;33659;42.672;23.354;2023-01-26T10:26:29;94339.59;;;1.26;69.66
11692;BME280;33659;42.672;23.354;2023-01-26T10:28:56;94336.22;;;1.30;69.91
11692;BME280;33659;42.672;23.354;2023-01-26T10:31:26;94319.91;;;1.40;69.69
11692;BME280;33659;42.672;23.354;2023-01-26T10:33:55;94330.91;;;1.51;69.58
11692;BME280;33659;42.672;23.354;2023-01-26T10:36:22;94322.06;;;1.62;69.22
11692;BME280;33659;42.672;23.354;2023-01-26T10:38:50;94321.63;;;1.79;68.77
11692;BME280;33659;42.672;23.354;2023-01-26T10:41:26;94304.66;;;1.78;68.44
11692;BME280;33659;42.672;23.354;2023-01-26T10:43:55;94302.34;;;1.76;68.67
11692;BME280;33659;42.672;23.354;2023-01-26T10:46:26;94284.81;;;1.78;68.33
11692;BME280;33659;42.672;23.354;2023-01-26T10:48:53;94286.34;;;1.79;68.65
11692;BME280;33659;42.672;23.354;2023-01-26T10:51:24;94275.47;;;1.87;68.41
11692;BME280;33659;42.672;23.354;2023-01-26T10:54:12;94265.44;;;1.86;67.33
11692;BME280;33659;42.672;23.354;2023-01-26T10:56:43;94266.81;;;1.78;68.53
11692;BME280;33659;42.672;23.354;2023-01-26T10:59:12;94255.78;;;1.73;68.15
11692;BME280;33659;42.672;23.354;2023-01-26T11:01:54;94256.78;;;1.77;68.30
11692;BME280;33659;42.672;23.354;2023-01-26T11:04:22;94243.88;;;1.82;68.63
11692;BME280;33659;42.672;23.354;2023-01-26T11:06:50;94234.94;;;1.74;68.08
11692;BME280;33659;42.672;23.354;2023-01-26T11:09:18;94229.81;;;1.74;68.04
11692;BME280;33659;42.672;23.354;2023-01-26T11:12:02;94229.91;;;1.88;67.95
11692;BME280;33659;42.672;23.354;2023-01-26T11:14:30;94222.50;;;1.81;68.72
11692;BME280;33659;42.672;23.354;2023-01-26T11:17:08;94225.56;;;1.83;67.78
11692;BME280;33659;42.672;23.354;2023-01-26T11:19:48;94196.69;;;1.86;68.29
11692;BME280;33659;42.672;23.354;2023-01-26T11:22:24;94209.03;;;1.89;68.21
11692;BME280;33659;42.672;23.354;2023-01-26T11:24:59;94204.44;;;1.62;68.57
11692;BME280;33659;42.672;23.354;2023-01-26T11:27:37;94187.44;;;1.43;69.48
11692;BME280;33659;42.672;23.354;2023-01-26T11:30:17;94186.72;;;1.37;70.14
11692;BME280;33659;42.672;23.354;2023-01-26T11:32:55;94187.69;;;1.41;70.37
11692;BME280;33659;42.672;23.354;2023-01-26T11:35:29;94174.34;;;1.39;70.42
11692;BME280;33659;42.672;23.354;2023-01-26T11:38:07;94181.25;;;1.44;70.46
11692;BME280;33659;42.672;23.354;2023-01-26T11:40:42;94172.81;;;1.38;70.56
11692;BME280;33659;42.672;23.354;2023-01-26T11:43:23;94165.63;;;1.35;71.06
11692;BME280;33659;42.672;23.354;2023-01-26T11:46:07;94151.91;;;1.45;70.97
11692;BME280;33659;42.672;23.354;2023-01-26T11:48:48;94167.38;;;1.40;71.03
11692;BME280;33659;42.672;23.354;2023-01-26T11:51:24;94167.31;;;1.45;71.12
11692;BME280;33659;42.672;23.354;2023-01-26T11:54:17;94168.41;;;1.39;71.04
11692;BME280;33659;42.672;23.354;2023-01-26T11:56:50;94138.53;;;1.19;71.46
11692;BME280;33659;42.672;23.354;2023-01-26T11:59:27;94168.69;;;1.37;71.78
11692;BME280;33659;42.672;23.354;2023-01-26T12:02:00;94166.19;;;1.32;71.40
11692;BME280;33659;42.672;23.354;2023-01-26T12:04:31;94151.34;;;1.24;71.67
11692;BME280;33659;42.672;23.354;2023-01-26T12:07:05;94149.81;;;1.23;72.10
11692;BME280;33659;42.672;23.354;2023-01-26T12:09:38;94151.31;;;1.29;72.27
11692;BME280;33659;42.672;23.354;2023-01-26T12:12:11;94139.53;;;1.23;72.42
11692;BME280;33659;42.672;23.354;2023-01-26T12:14:44;94148.78;;;1.24;72.33
11692;BME280;33659;42.672;23.354;2023-01-26T12:17:26;94110.09;;;1.10;72.43
11692;BME280;33659;42.672;23.354;2023-01-26T12:20:04;94121.88;;;1.35;72.07
11692;BME280;33659;42.672;23.354;2023-01-26T12:22:41;94116.94;;;1.44;72.38
11692;BME280;33659;42.672;23.354;2023-01-26T12:25:21;94116.75;;;1.35;72.43
11692;BME280;33659;42.672;23.354;2023-01-26T12:27:57;94106.34;;;1.45;72.76
11692;BME280;33659;42.672;23.354;2023-01-26T12:30:33;94108.31;;;1.53;71.91
11692;BME280;33659;42.672;23.354;2023-01-26T12:33:02;94103.66;;;1.55;72.25
11692;BME280;33659;42.672;23.354;2023-01-26T12:35:53;94090.03;;;1.55;72.01
11692;BME280;33659;42.672;23.354;2023-01-26T12:38:30;94096.06;;;1.45;72.35
11692;BME280;33659;42.672;23.354;2023-01-26T12:41:08;94087.97;;;1.33;73.00
11692;BME280;33659;42.672;23.354;2023-01-26T12:43:47;94086.78;;;1.25;73.38
11692;BME280;33659;42.672;23.354;2023-01-26T12:46:18;94091.97;;;1.20;74.29
11692;BME280;33659;42.672;23.354;2023-01-26T12:48:49;94089.63;;;1.24;73.92
11692;BME280;33659;42.672;23.354;2023-01-26T12:51:24;94084.16;;;1.30;74.17
11692;BME280;33659;42.672;23.354;2023-01-26T12:53:56;94077.50;;;1.29;73.66
11692;BME280;33659;42.672;23.354;2023-01-26T12:56:30;94089.16;;;1.41;73.93
11692;BME280;33659;42.672;23.354;2023-01-26T12:59:04;94083.81;;;1.37;74.15
11692;BME280;33659;42.672;23.354;2023-01-26T13:01:37;94081.03;;;1.33;74.53
11692;BME280;33659;42.672;23.354;2023-01-26T13:04:08;94073.63;;;1.27;74.58
11692;BME280;33659;42.672;23.354;2023-01-26T13:06:36;94063.31;;;1.32;74.80
11692;BME280;33659;42.672;23.354;2023-01-26T13:09:18;94077.25;;;1.26;74.96
11692;BME280;33659;42.672;23.354;2023-01-26T13:11:50;94075.50;;;1.21;75.46
11692;BME280;33659;42.672;23.354;2023-01-26T13:14:32;94082.97;;;1.23;75.76
11692;BME280;33659;42.672;23.354;2023-01-26T13:20:19;94074.75;;;1.21;76.71
11692;BME280;33659;42.672;23.354;2023-01-26T13:22:49;94068.34;;;1.18;76.27